Skip Navigation Links
NOAA logo - Click to go to the NOAA homepage
NOAA's National Weather Service
Alaska Aviation Weather Unit
  NWS logo - Click to go to the NWS homepage
Left Navbar Graphic     09 AKDT = 17 GMT

   
NOAA is celebrating 200 years of science, service, and stewardship. Visit the NOAA 200th celebration Web site to learn more.
USA.gov is the U.S. Government's official Web portal to all Federal, state and local government Web resources and services.
Facebook
NWS on Facebook

Important Change Regarding the AAWU Web Presence

 

Over the last several months, the AAWU has been working to navigate its webpages to a nationally supported server. Security, as well as other needs, have necessitated the change.  In the process, we have made an effort to enhance the functionality of our website, as well as some of our products. As of June 20, 2017, aawu.arh.noaa.gov will be discontinued. The new AAWU web address is weather.gov/aawu. It is now live and will run in-parallel with the old site until it is discontinued. Please send any feedback or questions regarding the new webpages to nws.ar.aawu.webauthors@noaa.gov.  Thank you for your patience during this time of transition.
AAWU Home :: Display TAF Add Bookmark
SPECI PAMO 271116Z AUTO 15012KT BKN006 OVC013 03/02 A2986 RMK AO2 CIG
     003V007 PWINO $=

SPECI PAMO 271138Z AUTO 16013KT BKN004 OVC013 03/02 A2986 RMK AO2 CIG
     003V009 PWINO $=

SPECI PAMO 271148Z AUTO 15012KT SCT004 BKN013 OVC029 03/02 A2986 RMK
 AO2 PWINO $=

METAR PAMO 271156Z AUTO 16011KT SCT004 BKN013 OVC029 03/02 A2986 RMK AO2
     SLP127 70003 T00280017 10039 20028 53004 PWINO $=

SPECI PAMO 271211Z AUTO 16011KT BKN006 BKN018 OVC029 03/02 A2986 RMK AO2
     PWINO $=

SPECI PAMO 271233Z AUTO 16012KT SCT006 OVC016 03/02 A2987 RMK AO2 PWINO
     $=

SPECI PAMO 271250Z AUTO 15013KT BKN008 OVC016 03/02 A2987 RMK AO2 CIG
     005V012 PWINO $=

METAR PAMO 271256Z AUTO 16014KT BKN006 BKN011 OVC016 03/02 A2986 RMK AO2
     CIG 004V009 SLP128 T00280022 PWINO $=

SPECI PAMO 271316Z AUTO 17008KT OVC004 03/02 A2987 RMK AO2 CIG 002V008
     P0001 PWINO $=

PAMO 271349Z AUTO 16012KT SCT004 BKN011 OVC016 02/02 A2987 RMK AO2
     P0002 PWINO FZRANO $=

METAR PAMO 271356Z AUTO 15011KT SCT004 BKN011 OVC026 02/02 A2987 RMK AO2
     SLP129 P0002 T00220017 PWINO FZRANO $=

METAR PAMO 271456Z AUTO 15012KT SCT003 OVC011 02/02 A2987 RMK AO2
 CIG 008V014 SLP130 60002 T00220017 52003 PWINO FZRANO $=

SPECI PAMO 271507Z AUTO 15010KT BKN003 OVC011 02/02 A2987 RMK AO2 PWINO
     FZRANO $=

METAR PAMO 271556Z AUTO 15012KT OVC003 02/02 A2988 RMK AO2 SLP132
     T00220017 PWINO FZRANO $=

METAR PAMO 271656Z AUTO 14011KT OVC003 02/02 A2988 RMK AO2 SLP135
     T00220017 PWINO FZRANO $=


NOAA's National Weather Service
Alaska Aviation Weather Unit
6930 Sand Lake Road
Anchorage, AK 99502-1845
Disclaimer
Credits
Glossary
Privacy Policy
About Us
Career Opportunities
Contact AAWU Internet Services Site last modified: April, 17th 2012